sensor_id;sensor_type;location;lat;lon;timestamp;pressure;altitude;pressure_sealevel;temperature;humidity
10668;BME280;5382;42.136;24.796;2023-08-07T00:01:13;99047.84;;;23.68;91.83
10668;BME280;5382;42.136;24.796;2023-08-07T00:03:40;99036.50;;;23.60;92.65
10668;BME280;5382;42.136;24.796;2023-08-07T00:06:07;99042.47;;;23.62;93.07
10668;BME280;5382;42.136;24.796;2023-08-07T00:08:34;99041.94;;;23.46;94.10
10668;BME280;5382;42.136;24.796;2023-08-07T00:11:08;99033.44;;;23.43;94.11
10668;BME280;5382;42.136;24.796;2023-08-07T00:13:35;99033.06;;;23.33;94.41
10668;BME280;5382;42.136;24.796;2023-08-07T00:16:03;99062.53;;;23.41;95.47
10668;BME280;5382;42.136;24.796;2023-08-07T00:18:30;99053.81;;;23.39;95.27
10668;BME280;5382;42.136;24.796;2023-08-07T00:20:57;99052.59;;;23.35;95.37
10668;BME280;5382;42.136;24.796;2023-08-07T00:23:24;99063.00;;;23.24;96.07
10668;BME280;5382;42.136;24.796;2023-08-07T00:25:50;99057.19;;;23.27;96.13
10668;BME280;5382;42.136;24.796;2023-08-07T00:28:18;99059.50;;;23.24;96.89
10668;BME280;5382;42.136;24.796;2023-08-07T00:30:45;99056.16;;;23.28;96.57
10668;BME280;5382;42.136;24.796;2023-08-07T00:33:12;99036.06;;;23.11;97.72
10668;BME280;5382;42.136;24.796;2023-08-07T00:35:39;99068.41;;;23.24;97.95
10668;BME280;5382;42.136;24.796;2023-08-07T00:38:06;99061.75;;;23.20;98.28
10668;BME280;5382;42.136;24.796;2023-08-07T00:40:39;99009.34;;;22.76;98.86
10668;BME280;5382;42.136;24.796;2023-08-07T00:43:06;99070.97;;;23.06;100.00
10668;BME280;5382;42.136;24.796;2023-08-07T00:45:40;99050.63;;;23.03;100.00
10668;BME280;5382;42.136;24.796;2023-08-07T00:48:08;99053.72;;;22.94;100.00
10668;BME280;5382;42.136;24.796;2023-08-07T00:50:35;99050.19;;;23.00;100.00
10668;BME280;5382;42.136;24.796;2023-08-07T00:53:02;99051.25;;;22.99;100.00
10668;BME280;5382;42.136;24.796;2023-08-07T00:55:29;99035.06;;;22.79;100.00
10668;BME280;5382;42.136;24.796;2023-08-07T00:57:56;99046.50;;;22.88;100.00
10668;BME280;5382;42.136;24.796;2023-08-07T01:00:25;99062.88;;;22.93;100.00
10668;BME280;5382;42.136;24.796;2023-08-07T01:02:54;99058.94;;;22.75;100.00
10668;BME280;5382;42.136;24.796;2023-08-07T01:05:23;99077.59;;;22.83;100.00
10668;BME280;5382;42.136;24.796;2023-08-07T01:07:52;99075.97;;;22.76;100.00
10668;BME280;5382;42.136;24.796;2023-08-07T01:10:25;99085.28;;;22.86;100.00
10668;BME280;5382;42.136;24.796;2023-08-07T01:13:01;99078.47;;;22.77;100.00
10668;BME280;5382;42.136;24.796;2023-08-07T01:15:30;99093.41;;;22.80;100.00
10668;BME280;5382;42.136;24.796;2023-08-07T01:18:01;99028.31;;;22.23;100.00
10668;BME280;5382;42.136;24.796;2023-08-07T01:20:30;99101.28;;;22.68;100.00
10668;BME280;5382;42.136;24.796;2023-08-07T01:22:58;99080.53;;;22.62;100.00
10668;BME280;5382;42.136;24.796;2023-08-07T01:25:25;99095.28;;;22.59;100.00
10668;BME280;5382;42.136;24.796;2023-08-07T01:28:02;99106.03;;;22.53;100.00
10668;BME280;5382;42.136;24.796;2023-08-07T01:30:33;99107.06;;;22.45;100.00
10668;BME280;5382;42.136;24.796;2023-08-07T01:33:09;99099.59;;;22.40;100.00
10668;BME280;5382;42.136;24.796;2023-08-07T01:35:41;99087.38;;;22.31;100.00
10668;BME280;5382;42.136;24.796;2023-08-07T01:38:11;99103.97;;;22.41;100.00
10668;BME280;5382;42.136;24.796;2023-08-07T01:40:39;99084.91;;;22.36;100.00
10668;BME280;5382;42.136;24.796;2023-08-07T01:43:07;99112.06;;;22.41;100.00
10668;BME280;5382;42.136;24.796;2023-08-07T01:45:34;99122.22;;;22.39;100.00
10668;BME280;5382;42.136;24.796;2023-08-07T01:48:01;99103.56;;;22.31;100.00
10668;BME280;5382;42.136;24.796;2023-08-07T01:50:28;99116.00;;;22.26;100.00
10668;BME280;5382;42.136;24.796;2023-08-07T01:52:55;99120.34;;;22.33;100.00
10668;BME280;5382;42.136;24.796;2023-08-07T01:55:24;99087.72;;;22.15;100.00
10668;BME280;5382;42.136;24.796;2023-08-07T01:57:51;99129.06;;;22.29;100.00
10668;BME280;5382;42.136;24.796;2023-08-07T02:00:18;99128.19;;;22.21;100.00
10668;BME280;5382;42.136;24.796;2023-08-07T02:02:45;99130.47;;;22.18;100.00
10668;BME280;5382;42.136;24.796;2023-08-07T02:05:12;99132.72;;;22.14;100.00
10668;BME280;5382;42.136;24.796;2023-08-07T02:07:39;99130.81;;;22.02;100.00
10668;BME280;5382;42.136;24.796;2023-08-07T02:10:06;99129.81;;;22.03;100.00
10668;BME280;5382;42.136;24.796;2023-08-07T02:12:35;99131.22;;;21.98;100.00
10668;BME280;5382;42.136;24.796;2023-08-07T02:15:02;99061.06;;;21.52;100.00
10668;BME280;5382;42.136;24.796;2023-08-07T02:17:29;99153.41;;;22.00;100.00
10668;BME280;5382;42.136;24.796;2023-08-07T02:19:56;99142.81;;;21.99;100.00
10668;BME280;5382;42.136;24.796;2023-08-07T02:22:24;99138.44;;;21.91;100.00
10668;BME280;5382;42.136;24.796;2023-08-07T02:24:51;99146.34;;;21.93;100.00
10668;BME280;5382;42.136;24.796;2023-08-07T02:27:18;99146.50;;;21.78;100.00
10668;BME280;5382;42.136;24.796;2023-08-07T02:29:46;99157.91;;;21.80;100.00
10668;BME280;5382;42.136;24.796;2023-08-07T02:34:39;99136.94;;;21.69;100.00
10668;BME280;5382;42.136;24.796;2023-08-07T02:37:06;99153.31;;;21.74;100.00
10668;BME280;5382;42.136;24.796;2023-08-07T02:39:33;99146.72;;;21.83;100.00
10668;BME280;5382;42.136;24.796;2023-08-07T02:44:26;99142.06;;;21.57;100.00
10668;BME280;5382;42.136;24.796;2023-08-07T02:46:54;99155.16;;;21.67;100.00
10668;BME280;5382;42.136;24.796;2023-08-07T02:49:21;99158.25;;;21.64;100.00
10668;BME280;5382;42.136;24.796;2023-08-07T02:51:48;99144.56;;;21.59;100.00
10668;BME280;5382;42.136;24.796;2023-08-07T02:54:15;99105.81;;;21.18;100.00
10668;BME280;5382;42.136;24.796;2023-08-07T02:56:41;99156.50;;;21.49;100.00
10668;BME280;5382;42.136;24.796;2023-08-07T02:59:08;99113.16;;;21.03;100.00
10668;BME280;5382;42.136;24.796;2023-08-07T03:01:35;99166.41;;;21.42;100.00
10668;BME280;5382;42.136;24.796;2023-08-07T03:04:04;99176.34;;;21.42;100.00
10668;BME280;5382;42.136;24.796;2023-08-07T03:06:30;99175.00;;;21.31;100.00
10668;BME280;5382;42.136;24.796;2023-08-07T03:08:57;99085.06;;;20.77;100.00
10668;BME280;5382;42.136;24.796;2023-08-07T03:11:24;99156.25;;;21.09;100.00
10668;BME280;5382;42.136;24.796;2023-08-07T03:13:52;99192.31;;;21.22;100.00
10668;BME280;5382;42.136;24.796;2023-08-07T03:16:18;99164.94;;;21.11;100.00
10668;BME280;5382;42.136;24.796;2023-08-07T03:18:45;99179.19;;;21.05;100.00
10668;BME280;5382;42.136;24.796;2023-08-07T03:21:14;99190.38;;;21.09;100.00
10668;BME280;5382;42.136;24.796;2023-08-07T03:23:41;99190.97;;;21.04;100.00
10668;BME280;5382;42.136;24.796;2023-08-07T03:26:09;99196.97;;;21.06;100.00
10668;BME280;5382;42.136;24.796;2023-08-07T03:28:37;99197.38;;;21.03;100.00
10668;BME280;5382;42.136;24.796;2023-08-07T03:31:04;99202.00;;;21.09;100.00
10668;BME280;5382;42.136;24.796;2023-08-07T03:33:31;99205.94;;;21.13;100.00
10668;BME280;5382;42.136;24.796;2023-08-07T03:35:57;99206.03;;;21.27;100.00
10668;BME280;5382;42.136;24.796;2023-08-07T03:38:26;99221.91;;;21.43;100.00
10668;BME280;5382;42.136;24.796;2023-08-07T03:40:52;99182.59;;;21.21;100.00
10668;BME280;5382;42.136;24.796;2023-08-07T03:43:19;99219.22;;;21.43;100.00
10668;BME280;5382;42.136;24.796;2023-08-07T03:45:47;99216.38;;;21.51;100.00
10668;BME280;5382;42.136;24.796;2023-08-07T03:48:14;99219.06;;;21.51;100.00
10668;BME280;5382;42.136;24.796;2023-08-07T03:50:41;99208.88;;;21.47;100.00
10668;BME280;5382;42.136;24.796;2023-08-07T03:53:08;99221.81;;;21.30;100.00
10668;BME280;5382;42.136;24.796;2023-08-07T03:55:36;99211.88;;;21.37;100.00
10668;BME280;5382;42.136;24.796;2023-08-07T03:58:02;99216.13;;;21.46;100.00
10668;BME280;5382;42.136;24.796;2023-08-07T04:00:29;99212.84;;;21.51;100.00
10668;BME280;5382;42.136;24.796;2023-08-07T04:02:56;99213.31;;;21.61;100.00
10668;BME280;5382;42.136;24.796;2023-08-07T04:05:23;99219.19;;;21.71;100.00
10668;BME280;5382;42.136;24.796;2023-08-07T04:07:50;99244.03;;;21.73;100.00
10668;BME280;5382;42.136;24.796;2023-08-07T04:10:16;99231.38;;;21.67;100.00
10668;BME280;5382;42.136;24.796;2023-08-07T04:12:45;99220.78;;;21.66;100.00
10668;BME280;5382;42.136;24.796;2023-08-07T04:15:11;99245.22;;;21.64;100.00
10668;BME280;5382;42.136;24.796;2023-08-07T04:17:38;99237.09;;;21.58;100.00
10668;BME280;5382;42.136;24.796;2023-08-07T04:20:06;99228.94;;;21.44;100.00
10668;BME280;5382;42.136;24.796;2023-08-07T04:22:34;99251.78;;;21.55;100.00
10668;BME280;5382;42.136;24.796;2023-08-07T04:25:01;99232.09;;;21.48;100.00
10668;BME280;5382;42.136;24.796;2023-08-07T04:27:28;99241.66;;;21.57;100.00
10668;BME280;5382;42.136;24.796;2023-08-07T04:29:56;99220.44;;;21.41;100.00
10668;BME280;5382;42.136;24.796;2023-08-07T04:32:23;99257.22;;;21.62;100.00
10668;BME280;5382;42.136;24.796;2023-08-07T04:34:50;99241.47;;;21.59;100.00
10668;BME280;5382;42.136;24.796;2023-08-07T04:37:17;99245.66;;;21.68;100.00
10668;BME280;5382;42.136;24.796;2023-08-07T04:39:44;99247.28;;;21.62;100.00
10668;BME280;5382;42.136;24.796;2023-08-07T04:42:10;99251.03;;;21.61;100.00
10668;BME280;5382;42.136;24.796;2023-08-07T04:44:38;99249.41;;;21.67;100.00
10668;BME280;5382;42.136;24.796;2023-08-07T04:47:07;99253.75;;;21.68;100.00
10668;BME280;5382;42.136;24.796;2023-08-07T04:49:33;99265.16;;;21.70;100.00
10668;BME280;5382;42.136;24.796;2023-08-07T04:52:00;99260.59;;;21.70;100.00
10668;BME280;5382;42.136;24.796;2023-08-07T04:54:27;99258.94;;;21.69;100.00
10668;BME280;5382;42.136;24.796;2023-08-07T04:56:54;99260.59;;;21.70;100.00
10668;BME280;5382;42.136;24.796;2023-08-07T04:59:21;99282.78;;;21.72;100.00
10668;BME280;5382;42.136;24.796;2023-08-07T05:01:48;99284.63;;;21.72;100.00
10668;BME280;5382;42.136;24.796;2023-08-07T05:04:16;99275.75;;;21.78;100.00
10668;BME280;5382;42.136;24.796;2023-08-07T05:06:43;99272.06;;;21.79;100.00
10668;BME280;5382;42.136;24.796;2023-08-07T05:09:09;99270.81;;;21.82;100.00
10668;BME280;5382;42.136;24.796;2023-08-07T05:11:35;99276.69;;;21.92;100.00
10668;BME280;5382;42.136;24.796;2023-08-07T05:14:02;99270.47;;;21.98;100.00
10668;BME280;5382;42.136;24.796;2023-08-07T05:16:29;99287.63;;;21.90;100.00
10668;BME280;5382;42.136;24.796;2023-08-07T05:18:56;99276.28;;;21.95;100.00
10668;BME280;5382;42.136;24.796;2023-08-07T05:21:24;99227.44;;;21.70;100.00
10668;BME280;5382;42.136;24.796;2023-08-07T05:23:51;99203.34;;;21.55;100.00
10668;BME280;5382;42.136;24.796;2023-08-07T05:26:18;99279.22;;;22.00;100.00
10668;BME280;5382;42.136;24.796;2023-08-07T05:28:45;99269.25;;;22.00;100.00
10668;BME280;5382;42.136;24.796;2023-08-07T05:31:13;99281.13;;;22.13;100.00
10668;BME280;5382;42.136;24.796;2023-08-07T05:33:39;99294.78;;;22.05;100.00
10668;BME280;5382;42.136;24.796;2023-08-07T05:36:08;99276.28;;;22.02;100.00
10668;BME280;5382;42.136;24.796;2023-08-07T05:38:36;99281.72;;;22.08;100.00
10668;BME280;5382;42.136;24.796;2023-08-07T05:41:03;99300.69;;;22.21;100.00
10668;BME280;5382;42.136;24.796;2023-08-07T05:43:29;99282.63;;;22.22;100.00
10668;BME280;5382;42.136;24.796;2023-08-07T05:45:56;99266.38;;;22.02;100.00
10668;BME280;5382;42.136;24.796;2023-08-07T05:48:23;99299.69;;;22.29;100.00
10668;BME280;5382;42.136;24.796;2023-08-07T05:50:51;99298.44;;;22.32;100.00
10668;BME280;5382;42.136;24.796;2023-08-07T05:53:19;99295.56;;;22.33;100.00
10668;BME280;5382;42.136;24.796;2023-08-07T05:55:47;99287.06;;;22.36;100.00
10668;BME280;5382;42.136;24.796;2023-08-07T05:58:14;99296.84;;;22.44;100.00
10668;BME280;5382;42.136;24.796;2023-08-07T06:00:41;99293.72;;;22.47;100.00
10668;BME280;5382;42.136;24.796;2023-08-07T06:03:08;99288.38;;;22.54;100.00
10668;BME280;5382;42.136;24.796;2023-08-07T06:05:35;99284.03;;;22.59;100.00
10668;BME280;5382;42.136;24.796;2023-08-07T06:08:01;99286.72;;;22.66;100.00
10668;BME280;5382;42.136;24.796;2023-08-07T06:10:29;99269.72;;;22.65;100.00
10668;BME280;5382;42.136;24.796;2023-08-07T06:12:57;99292.56;;;22.70;100.00
10668;BME280;5382;42.136;24.796;2023-08-07T06:15:24;99297.72;;;22.71;100.00
10668;BME280;5382;42.136;24.796;2023-08-07T06:17:51;99290.47;;;22.72;100.00
10668;BME280;5382;42.136;24.796;2023-08-07T06:20:17;99287.56;;;22.73;100.00
10668;BME280;5382;42.136;24.796;2023-08-07T06:22:45;99280.97;;;22.82;100.00
10668;BME280;5382;42.136;24.796;2023-08-07T06:25:12;99275.16;;;22.92;100.00
10668;BME280;5382;42.136;24.796;2023-08-07T06:27:39;99280.19;;;23.02;100.00
10668;BME280;5382;42.136;24.796;2023-08-07T06:30:08;99269.63;;;23.00;100.00
10668;BME280;5382;42.136;24.796;2023-08-07T06:32:35;99278.13;;;23.11;100.00
10668;BME280;5382;42.136;24.796;2023-08-07T06:35:03;99287.66;;;23.20;100.00
10668;BME280;5382;42.136;24.796;2023-08-07T06:37:30;99269.41;;;23.08;100.00
10668;BME280;5382;42.136;24.796;2023-08-07T06:39:57;99276.66;;;23.28;100.00
10668;BME280;5382;42.136;24.796;2023-08-07T06:42:24;99286.00;;;23.39;100.00
10668;BME280;5382;42.136;24.796;2023-08-07T06:44:51;99256.72;;;23.22;100.00
10668;BME280;5382;42.136;24.796;2023-08-07T06:47:19;99293.09;;;23.26;100.00
10668;BME280;5382;42.136;24.796;2023-08-07T06:49:46;99280.38;;;23.34;100.00
10668;BME280;5382;42.136;24.796;2023-08-07T06:52:13;99288.69;;;23.39;100.00
10668;BME280;5382;42.136;24.796;2023-08-07T06:54:40;99293.47;;;23.50;100.00
10668;BME280;5382;42.136;24.796;2023-08-07T06:57:07;99294.69;;;23.54;100.00
10668;BME280;5382;42.136;24.796;2023-08-07T06:59:33;99307.59;;;23.65;100.00
10668;BME280;5382;42.136;24.796;2023-08-07T07:02:00;99307.41;;;23.73;100.00
10668;BME280;5382;42.136;24.796;2023-08-07T07:04:29;99288.06;;;23.77;100.00
10668;BME280;5382;42.136;24.796;2023-08-07T07:06:56;99299.25;;;23.93;96.53
10668;BME280;5382;42.136;24.796;2023-08-07T07:09:22;99320.06;;;23.86;98.79
10668;BME280;5382;42.136;24.796;2023-08-07T07:11:50;99280.78;;;23.77;96.96
10668;BME280;5382;42.136;24.796;2023-08-07T07:14:16;99264.78;;;23.69;97.17
10668;BME280;5382;42.136;24.796;2023-08-07T07:16:43;99300.91;;;23.94;97.69
10668;BME280;5382;42.136;24.796;2023-08-07T07:19:10;99268.31;;;23.76;96.98
10668;BME280;5382;42.136;24.796;2023-08-07T07:21:38;99311.09;;;23.99;95.78
10668;BME280;5382;42.136;24.796;2023-08-07T07:24:05;99279.91;;;23.97;94.45
10668;BME280;5382;42.136;24.796;2023-08-07T07:26:32;99300.03;;;24.14;92.06
10668;BME280;5382;42.136;24.796;2023-08-07T07:28:59;99281.31;;;24.06;91.30
10668;BME280;5382;42.136;24.796;2023-08-07T07:31:26;99286.66;;;24.26;88.84
10668;BME280;5382;42.136;24.796;2023-08-07T07:33:53;99293.69;;;24.40;91.07
10668;BME280;5382;42.136;24.796;2023-08-07T07:36:20;99286.78;;;24.44;88.52
10668;BME280;5382;42.136;24.796;2023-08-07T07:38:48;99269.72;;;24.44;90.54
10668;BME280;5382;42.136;24.796;2023-08-07T07:41:18;99293.19;;;24.63;86.19
10668;BME280;5382;42.136;24.796;2023-08-07T07:43:46;99295.28;;;24.61;81.38
10668;BME280;5382;42.136;24.796;2023-08-07T07:46:13;99288.59;;;24.64;83.73
10668;BME280;5382;42.136;24.796;2023-08-07T07:48:40;99293.13;;;24.70;85.59
10668;BME280;5382;42.136;24.796;2023-08-07T07:51:08;99292.28;;;24.76;83.21
10668;BME280;5382;42.136;24.796;2023-08-07T07:53:35;99278.56;;;24.71;84.31
10668;BME280;5382;42.136;24.796;2023-08-07T07:56:03;99285.28;;;24.93;82.91
10668;BME280;5382;42.136;24.796;2023-08-07T07:58:30;99237.56;;;24.74;75.34
10668;BME280;5382;42.136;24.796;2023-08-07T08:00:57;99291.59;;;25.19;70.34
10668;BME280;5382;42.136;24.796;2023-08-07T08:03:23;99299.13;;;25.10;69.83
10668;BME280;5382;42.136;24.796;2023-08-07T08:05:51;99301.38;;;25.13;66.30
10668;BME280;5382;42.136;24.796;2023-08-07T08:08:18;99294.88;;;25.28;65.91
10668;BME280;5382;42.136;24.796;2023-08-07T08:10:45;99281.66;;;25.38;64.33
10668;BME280;5382;42.136;24.796;2023-08-07T08:13:15;99206.63;;;25.20;65.02
10668;BME280;5382;42.136;24.796;2023-08-07T08:15:42;99286.66;;;25.59;63.29
10668;BME280;5382;42.136;24.796;2023-08-07T08:18:09;99278.72;;;25.58;61.04
10668;BME280;5382;42.136;24.796;2023-08-07T08:20:36;99238.06;;;25.39;59.57
10668;BME280;5382;42.136;24.796;2023-08-07T08:23:04;99263.09;;;25.78;58.74
10668;BME280;5382;42.136;24.796;2023-08-07T08:25:31;99296.94;;;25.94;56.73
10668;BME280;5382;42.136;24.796;2023-08-07T08:27:58;99279.69;;;26.07;56.42
10668;BME280;5382;42.136;24.796;2023-08-07T08:30:28;99270.22;;;26.16;56.04
10668;BME280;5382;42.136;24.796;2023-08-07T08:32:56;99271.03;;;26.17;54.94
10668;BME280;5382;42.136;24.796;2023-08-07T08:35:24;99274.25;;;26.25;54.87
10668;BME280;5382;42.136;24.796;2023-08-07T08:37:51;99262.06;;;26.35;55.13
10668;BME280;5382;42.136;24.796;2023-08-07T08:40:18;99262.44;;;26.57;55.63
10668;BME280;5382;42.136;24.796;2023-08-07T08:42:45;99257.03;;;26.68;54.21
10668;BME280;5382;42.136;24.796;2023-08-07T08:45:13;99247.84;;;26.69;54.30
10668;BME280;5382;42.136;24.796;2023-08-07T08:47:43;99242.44;;;26.81;53.44
10668;BME280;5382;42.136;24.796;2023-08-07T08:50:13;99216.69;;;26.84;53.11
10668;BME280;5382;42.136;24.796;2023-08-07T08:55:25;99232.25;;;27.30;52.03
10668;BME280;5382;42.136;24.796;2023-08-07T08:57:53;99230.59;;;27.53;51.17
10668;BME280;5382;42.136;24.796;2023-08-07T09:00:21;99230.47;;;27.59;50.17
10668;BME280;5382;42.136;24.796;2023-08-07T09:02:52;99214.88;;;27.55;49.71
10668;BME280;5382;42.136;24.796;2023-08-07T09:05:20;99227.50;;;27.73;48.98
10668;BME280;5382;42.136;24.796;2023-08-07T09:07:47;99225.81;;;27.95;50.49
10668;BME280;5382;42.136;24.796;2023-08-07T09:10:15;99227.09;;;28.04;48.88
10668;BME280;5382;42.136;24.796;2023-08-07T09:12:47;99241.97;;;28.14;48.05
10668;BME280;5382;42.136;24.796;2023-08-07T09:15:18;99213.13;;;28.13;47.02
10668;BME280;5382;42.136;24.796;2023-08-07T09:17:46;99194.47;;;28.04;47.97
10668;BME280;5382;42.136;24.796;2023-08-07T09:20:16;99208.91;;;28.34;46.98
10668;BME280;5382;42.136;24.796;2023-08-07T09:22:43;99210.13;;;28.55;46.27
10668;BME280;5382;42.136;24.796;2023-08-07T09:25:10;99186.81;;;28.59;45.73
10668;BME280;5382;42.136;24.796;2023-08-07T09:27:56;99206.66;;;29.05;45.34
10668;BME280;5382;42.136;24.796;2023-08-07T09:30:26;99207.38;;;29.17;43.33
10668;BME280;5382;42.136;24.796;2023-08-07T09:32:56;99198.97;;;29.02;43.19
10668;BME280;5382;42.136;24.796;2023-08-07T09:35:24;99203.19;;;29.09;44.59
10668;BME280;5382;42.136;24.796;2023-08-07T09:37:51;99181.06;;;28.89;43.43
10668;BME280;5382;42.136;24.796;2023-08-07T09:40:19;99212.19;;;29.10;43.24
10668;BME280;5382;42.136;24.796;2023-08-07T09:42:50;99217.38;;;29.28;41.97
10668;BME280;5382;42.136;24.796;2023-08-07T09:45:23;99205.69;;;29.50;41.66
10668;BME280;5382;42.136;24.796;2023-08-07T09:47:57;99171.31;;;29.49;41.30
10668;BME280;5382;42.136;24.796;2023-08-07T09:50:27;99210.75;;;29.80;40.32
10668;BME280;5382;42.136;24.796;2023-08-07T09:52:54;99188.59;;;29.76;40.13
10668;BME280;5382;42.136;24.796;2023-08-07T09:55:21;99182.91;;;30.00;39.76
10668;BME280;5382;42.136;24.796;2023-08-07T09:57:49;99187.84;;;30.03;40.15
10668;BME280;5382;42.136;24.796;2023-08-07T10:00:16;99184.66;;;29.89;39.79
10668;BME280;5382;42.136;24.796;2023-08-07T10:02:46;99193.88;;;29.83;40.52
10668;BME280;5382;42.136;24.796;2023-08-07T10:05:13;99194.19;;;29.87;40.23
10668;BME280;5382;42.136;24.796;2023-08-07T10:07:41;99185.31;;;29.96;39.77
10668;BME280;5382;42.136;24.796;2023-08-07T10:10:09;99183.28;;;30.09;39.81
10668;BME280;5382;42.136;24.796;2023-08-07T10:12:36;99175.97;;;30.36;39.02
10668;BME280;5382;42.136;24.796;2023-08-07T10:15:04;99177.41;;;30.44;38.76
10668;BME280;5382;42.136;24.796;2023-08-07T10:17:32;99171.72;;;30.51;37.75
10668;BME280;5382;42.136;24.796;2023-08-07T10:19:59;99175.00;;;30.53;37.01
10668;BME280;5382;42.136;24.796;2023-08-07T10:22:29;99117.31;;;30.17;36.52
10668;BME280;5382;42.136;24.796;2023-08-07T10:25:01;99166.47;;;30.44;36.46
10668;BME280;5382;42.136;24.796;2023-08-07T10:27:30;99158.25;;;30.71;37.14
10668;BME280;5382;42.136;24.796;2023-08-07T10:30:02;99165.56;;;30.65;35.48
10668;BME280;5382;42.136;24.796;2023-08-07T10:32:30;99123.13;;;30.53;35.00
10668;BME280;5382;42.136;24.796;2023-08-07T10:34:57;99156.28;;;30.94;35.70
10668;BME280;5382;42.136;24.796;2023-08-07T10:37:38;99123.59;;;31.09;36.18
10668;BME280;5382;42.136;24.796;2023-08-07T10:40:08;99142.09;;;31.39;35.78
10668;BME280;5382;42.136;24.796;2023-08-07T10:42:57;99134.47;;;31.46;35.04
10668;BME280;5382;42.136;24.796;2023-08-07T10:45:25;99153.63;;;32.25;35.03
10668;BME280;5382;42.136;24.796;2023-08-07T10:48:05;99149.25;;;32.44;34.15
10668;BME280;5382;42.136;24.796;2023-08-07T10:54:00;99138.72;;;33.74;32.97
10668;BME280;5382;42.136;24.796;2023-08-07T11:03:31;99130.94;;;35.29;31.19
10668;BME280;5382;42.136;24.796;2023-08-07T11:06:02;99097.81;;;35.39;30.03
10668;BME280;5382;42.136;24.796;2023-08-07T11:08:29;99146.53;;;35.87;30.05
10668;BME280;5382;42.136;24.796;2023-08-07T11:10:59;99068.00;;;35.70;29.12
10668;BME280;5382;42.136;24.796;2023-08-07T11:13:30;99132.91;;;36.14;28.75
10668;BME280;5382;42.136;24.796;2023-08-07T11:15:57;99089.38;;;36.16;29.28
10668;BME280;5382;42.136;24.796;2023-08-07T11:18:26;99120.91;;;36.62;28.42
10668;BME280;5382;42.136;24.796;2023-08-07T11:20:53;99127.22;;;36.95;27.99
10668;BME280;5382;42.136;24.796;2023-08-07T11:23:23;99115.00;;;37.70;27.88
10668;BME280;5382;42.136;24.796;2023-08-07T11:25:50;99098.78;;;38.05;27.77
10668;BME280;5382;42.136;24.796;2023-08-07T11:28:18;99108.94;;;38.55;27.12
10668;BME280;5382;42.136;24.796;2023-08-07T11:30:45;99109.88;;;38.73;26.70
10668;BME280;5382;42.136;24.796;2023-08-07T11:33:12;99099.75;;;38.68;27.84
10668;BME280;5382;42.136;24.796;2023-08-07T11:35:42;99105.47;;;37.90;27.42
10668;BME280;5382;42.136;24.796;2023-08-07T11:38:09;99103.22;;;36.96;28.41
10668;BME280;5382;42.136;24.796;2023-08-07T11:40:36;98991.91;;;36.45;29.22
10668;BME280;5382;42.136;24.796;2023-08-07T11:43:02;99065.41;;;36.96;28.93
10668;BME280;5382;42.136;24.796;2023-08-07T11:45:29;99086.59;;;37.42;29.63
10668;BME280;5382;42.136;24.796;2023-08-07T11:47:56;99082.59;;;38.12;28.70
10668;BME280;5382;42.136;24.796;2023-08-07T11:50:24;99080.34;;;38.37;27.42
10668;BME280;5382;42.136;24.796;2023-08-07T11:52:53;99085.13;;;38.68;27.98
10668;BME280;5382;42.136;24.796;2023-08-07T11:55:20;99085.44;;;37.71;28.00
10668;BME280;5382;42.136;24.796;2023-08-07T11:57:47;99082.59;;;37.48;29.24
10668;BME280;5382;42.136;24.796;2023-08-07T12:00:14;99088.34;;;37.10;29.06
10668;BME280;5382;42.136;24.796;2023-08-07T12:02:42;99080.97;;;37.47;28.83
10668;BME280;5382;42.136;24.796;2023-08-07T12:05:10;99073.59;;;37.43;29.40
10668;BME280;5382;42.136;24.796;2023-08-07T12:07:38;99072.66;;;37.75;28.55
10668;BME280;5382;42.136;24.796;2023-08-07T12:10:08;99072.72;;;38.43;28.14
10668;BME280;5382;42.136;24.796;2023-08-07T12:12:36;99058.84;;;39.28;27.72
10668;BME280;5382;42.136;24.796;2023-08-07T12:15:07;99054.25;;;40.06;26.73
10668;BME280;5382;42.136;24.796;2023-08-07T12:17:35;99061.78;;;40.23;27.60
10668;BME280;5382;42.136;24.796;2023-08-07T12:20:04;99055.09;;;39.89;27.07
10668;BME280;5382;42.136;24.796;2023-08-07T12:22:32;99048.03;;;39.75;26.91
10668;BME280;5382;42.136;24.796;2023-08-07T12:25:00;99051.69;;;39.26;26.71
10668;BME280;5382;42.136;24.796;2023-08-07T12:27:32;99051.84;;;39.79;26.87
10668;BME280;5382;42.136;24.796;2023-08-07T12:30:00;99046.44;;;38.76;27.25
10668;BME280;5382;42.136;24.796;2023-08-07T12:32:27;99044.84;;;38.08;28.24
10668;BME280;5382;42.136;24.796;2023-08-07T12:34:54;99043.41;;;38.55;28.00
10668;BME280;5382;42.136;24.796;2023-08-07T12:37:20;99052.56;;;39.44;27.74
10668;BME280;5382;42.136;24.796;2023-08-07T12:39:48;99043.50;;;39.87;27.12
10668;BME280;5382;42.136;24.796;2023-08-07T12:42:15;99052.66;;;39.79;27.40
10668;BME280;5382;42.136;24.796;2023-08-07T12:44:44;98997.56;;;39.78;27.56
10668;BME280;5382;42.136;24.796;2023-08-07T12:47:11;99040.75;;;39.79;27.19
10668;BME280;5382;42.136;24.796;2023-08-07T12:49:37;99055.69;;;40.47;26.15
10668;BME280;5382;42.136;24.796;2023-08-07T12:52:05;99053.72;;;40.65;26.28
10668;BME280;5382;42.136;24.796;2023-08-07T12:54:32;99021.25;;;40.57;26.16
10668;BME280;5382;42.136;24.796;2023-08-07T12:56:58;99053.72;;;40.57;26.29
10668;BME280;5382;42.136;24.796;2023-08-07T12:59:26;99051.38;;;41.23;25.74
10668;BME280;5382;42.136;24.796;2023-08-07T13:01:54;99045.34;;;41.72;25.63
10668;BME280;5382;42.136;24.796;2023-08-07T13:04:21;98989.22;;;41.07;24.93
10668;BME280;5382;42.136;24.796;2023-08-07T13:06:48;99039.38;;;42.03;25.41
10668;BME280;5382;42.136;24.796;2023-08-07T13:09:15;99038.19;;;40.73;25.46
10668;BME280;5382;42.136;24.796;2023-08-07T13:11:42;99038.13;;;40.82;25.58
10668;BME280;5382;42.136;24.796;2023-08-07T13:14:09;99033.41;;;40.26;25.79
10668;BME280;5382;42.136;24.796;2023-08-07T13:16:36;99026.34;;;39.42;26.88